Time;durP1;ratioP1;P1;durP2;ratioP2;P2;SDS_P1;SDS_P2;PMS_P1;PMS_P2;Temp;Humidity;BMP_temperature;BMP_pressure;BME280_temperature;BME280_humidity;BME280_pressure;Samples;Min_cycle;Max_cycle;Signal;HPM_P1;HPM_P2
2022/01/02 00:00:23;;;;;;;19.50;13.02;;;;;;;;;;4941404;29;20035;-86
2022/01/02 00:02:51;;;;;;;20.10;13.55;;;;;;;;;;4934995;29;20036;-86
2022/01/02 00:05:19;;;;;;;21.65;13.23;;;;;;;;;;4925625;29;20080;-86
2022/01/02 00:08:01;;;;;;;22.48;13.02;;;;;;;;;;4925659;29;20059;-85
2022/01/02 00:10:30;;;;;;;23.23;12.80;;;;;;;;;;4940330;28;20079;-85
2022/01/02 00:13:00;;;;;;;20.02;12.35;;;;;;;;;;4925534;29;20122;-87
2022/01/02 00:15:27;;;;;;;21.10;12.15;;;;;;;;;;4941175;29;20028;-85
2022/01/02 00:17:54;;;;;;;20.13;12.63;;;;;;;;;;4925292;29;20035;-87
2022/01/02 00:20:36;;;;;;;21.95;12.75;;;;;;;;;;4940915;29;20055;-87
2022/01/02 00:23:06;;;;;;;21.15;12.93;;;;;;;;;;4924793;29;20537;-85
2022/01/02 00:25:36;;;;;;;20.73;12.73;;;;;;;;;;4921810;29;20028;-85
2022/01/02 00:28:02;;;;;;;19.02;12.40;;;;;;;;;;4906238;29;20028;-86
2022/01/02 00:30:28;;;;;;;20.33;12.50;;;;;;;;;;4936017;29;20043;-86
2022/01/02 00:32:55;;;;;;;17.23;11.40;;;;;;;;;;4941003;29;20055;-86
2022/01/02 00:35:22;;;;;;;18.42;11.98;;;;;;;;;;4940836;29;20051;-86
2022/01/02 00:37:48;;;;;;;18.38;12.02;;;;;;;;;;4967152;28;20031;-87
2022/01/02 00:40:15;;;;;;;19.23;12.00;;;;;;;;;;4979968;28;20035;-86
2022/01/02 00:42:42;;;;;;;18.15;11.68;;;;;;;;;;4980057;28;20035;-87
2022/01/02 00:45:11;;;;;;;18.27;11.68;;;;;;;;;;4979759;28;20027;-87
2022/01/02 00:47:37;;;;;;;17.67;11.32;;;;;;;;;;4988160;28;20037;-87
2022/01/02 00:50:06;;;;;;;23.17;12.43;;;;;;;;;;4999382;28;20039;-87
2022/01/02 00:52:35;;;;;;;21.52;12.57;;;;;;;;;;5000312;28;20045;-87
2022/01/02 00:55:02;;;;;;;23.25;12.48;;;;;;;;;;5000760;28;20029;-87
2022/01/02 00:57:34;;;;;;;20.60;13.00;;;;;;;;;;4999349;28;20121;-85
2022/01/02 01:00:09;;;;;;;20.75;12.55;;;;;;;;;;5000502;28;20038;-87
2022/01/02 01:02:39;;;;;;;19.77;13.07;;;;;;;;;;5000166;28;20056;-87
2022/01/02 01:05:06;;;;;;;23.58;13.68;;;;;;;;;;5000079;28;20043;-87
2022/01/02 01:07:33;;;;;;;21.52;13.82;;;;;;;;;;5000323;28;20026;-87
2022/01/02 01:09:59;;;;;;;20.20;12.77;;;;;;;;;;4998987;28;20041;-87
2022/01/02 01:12:26;;;;;;;26.85;15.20;;;;;;;;;;4999003;28;20488;-86
2022/01/02 01:14:52;;;;;;;33.72;20.05;;;;;;;;;;4999983;28;20345;-86
2022/01/02 01:17:18;;;;;;;29.98;18.77;;;;;;;;;;4998313;28;20302;-85
2022/01/02 01:19:45;;;;;;;27.63;15.07;;;;;;;;;;4999848;28;20026;-86
2022/01/02 01:22:12;;;;;;;20.73;13.63;;;;;;;;;;4998696;28;20272;-85
2022/01/02 01:24:38;;;;;;;21.73;12.32;;;;;;;;;;4999819;28;20023;-86
2022/01/02 01:27:06;;;;;;;18.48;11.85;;;;;;;;;;4999343;28;20052;-86
2022/01/02 01:29:34;;;;;;;17.42;12.00;;;;;;;;;;4998529;28;20042;-88
2022/01/02 01:32:07;;;;;;;21.02;12.52;;;;;;;;;;4998710;28;20314;-86
2022/01/02 01:34:33;;;;;;;23.23;14.05;;;;;;;;;;4979782;28;20043;-87
2022/01/02 01:36:59;;;;;;;24.90;14.95;;;;;;;;;;4980024;28;20031;-88
2022/01/02 01:39:25;;;;;;;25.95;14.95;;;;;;;;;;4979706;28;20317;-86
2022/01/02 01:41:53;;;;;;;26.52;15.15;;;;;;;;;;4980314;28;20102;-88
2022/01/02 01:45:28;;;;;;;25.08;14.60;;;;;;;;;;4980183;28;20022;-86
2022/01/02 01:47:24;;;;;;;25.88;15.30;;;;;;;;;;4979650;28;20322;-86
2022/01/02 01:49:50;;;;;;;28.27;16.50;;;;;;;;;;4981222;28;20424;-87
2022/01/02 01:52:16;;;;;;;27.55;16.73;;;;;;;;;;4987347;28;20353;-87
2022/01/02 01:54:42;;;;;;;32.63;18.25;;;;;;;;;;4998235;28;20034;-86
2022/01/02 01:57:08;;;;;;;30.95;18.00;;;;;;;;;;4999338;28;20034;-87
2022/01/02 01:59:34;;;;;;;33.88;18.48;;;;;;;;;;4997961;28;20030;-87
2022/01/02 02:02:01;;;;;;;35.60;19.42;;;;;;;;;;4999149;28;20061;-88
2022/01/02 02:04:28;;;;;;;31.85;17.90;;;;;;;;;;4999056;28;20042;-88
2022/01/02 02:06:56;;;;;;;27.33;15.75;;;;;;;;;;4998921;28;20113;-88
2022/01/02 02:09:26;;;;;;;23.02;13.82;;;;;;;;;;4999046;28;20429;-88
2022/01/02 02:11:58;;;;;;;19.80;13.02;;;;;;;;;;4998787;28;20038;-87
2022/01/02 02:14:24;;;;;;;25.25;13.57;;;;;;;;;;4999203;28;20041;-87
2022/01/02 02:16:51;;;;;;;24.90;15.48;;;;;;;;;;4998931;28;20030;-87
2022/01/02 02:19:17;;;;;;;24.90;14.70;;;;;;;;;;4998624;28;20033;-88
2022/01/02 02:21:43;;;;;;;23.45;13.38;;;;;;;;;;4997675;28;20065;-87
2022/01/02 02:24:09;;;;;;;20.60;13.40;;;;;;;;;;4998567;28;20026;-87
2022/01/02 02:26:37;;;;;;;19.05;12.18;;;;;;;;;;4997509;28;20023;-88
2022/01/02 02:29:04;;;;;;;19.35;12.52;;;;;;;;;;4998685;28;20023;-87
2022/01/02 02:31:30;;;;;;;19.92;12.23;;;;;;;;;;4997497;28;20113;-86
2022/01/02 02:33:56;;;;;;;20.33;11.35;;;;;;;;;;4997513;28;20042;-86
2022/01/02 02:36:22;;;;;;;18.73;12.55;;;;;;;;;;4998107;28;20042;-86
2022/01/02 02:38:48;;;;;;;21.75;13.35;;;;;;;;;;4998752;28;20030;-86
2022/01/02 02:41:15;;;;;;;25.90;15.95;;;;;;;;;;4998266;28;20030;-86
2022/01/02 02:43:50;;;;;;;26.98;17.10;;;;;;;;;;4997469;28;20023;-86
2022/01/02 02:49:02;;;;;;;27.20;15.80;;;;;;;;;;4998628;28;20329;-87
2022/01/02 02:51:46;;;;;;;34.42;19.95;;;;;;;;;;4997313;28;20031;-87
2022/01/02 02:54:40;;;;;;;27.05;16.90;;;;;;;;;;4998504;28;20070;-86
2022/01/02 02:57:12;;;;;;;27.00;16.50;;;;;;;;;;4996804;28;20055;-87
2022/01/02 02:59:38;;;;;;;28.17;17.23;;;;;;;;;;4997209;28;20384;-86
2022/01/02 03:02:04;;;;;;;19.42;13.18;;;;;;;;;;4997797;28;20105;-87
2022/01/02 03:04:31;;;;;;;21.52;13.63;;;;;;;;;;4998075;28;20034;-87
2022/01/02 03:06:57;;;;;;;20.13;11.65;;;;;;;;;;4997031;28;20030;-86
2022/01/02 03:09:48;;;;;;;18.15;12.57;;;;;;;;;;4998244;28;20105;-86
2022/01/02 03:12:13;;;;;;;21.98;14.02;;;;;;;;;;4997609;28;20306;-87
2022/01/02 03:14:39;;;;;;;23.55;14.20;;;;;;;;;;4997992;28;20036;-88
2022/01/02 03:17:05;;;;;;;22.92;14.65;;;;;;;;;;4998229;28;20037;-88
2022/01/02 03:19:32;;;;;;;21.00;12.93;;;;;;;;;;4997012;28;20336;-88
2022/01/02 03:21:58;;;;;;;17.98;11.98;;;;;;;;;;4998135;28;20058;-88
2022/01/02 03:24:25;;;;;;;24.10;12.23;;;;;;;;;;4997848;28;20397;-87
2022/01/02 03:26:51;;;;;;;21.80;13.43;;;;;;;;;;4998228;28;20105;-88
2022/01/02 03:29:17;;;;;;;23.90;14.82;;;;;;;;;;4997835;28;20026;-87
2022/01/02 03:31:43;;;;;;;23.02;13.07;;;;;;;;;;4996978;28;20030;-88
2022/01/02 03:34:10;;;;;;;20.98;13.85;;;;;;;;;;4998146;28;20046;-89
2022/01/02 03:36:36;;;;;;;23.45;14.57;;;;;;;;;;4997703;28;20050;-88
2022/01/02 03:39:02;;;;;;;19.77;13.32;;;;;;;;;;4997860;28;20192;-88
2022/01/02 03:41:28;;;;;;;20.40;13.27;;;;;;;;;;4997827;28;20029;-88
2022/01/02 03:43:55;;;;;;;23.92;14.15;;;;;;;;;;4996929;28;20025;-88
2022/01/02 03:46:21;;;;;;;22.75;14.88;;;;;;;;;;4997921;28;20041;-88
2022/01/02 03:48:47;;;;;;;23.60;15.60;;;;;;;;;;4998012;28;20026;-87
2022/01/02 03:51:13;;;;;;;22.55;13.95;;;;;;;;;;4997838;28;20428;-87
2022/01/02 03:53:39;;;;;;;20.70;13.88;;;;;;;;;;4997749;28;20030;-86
2022/01/02 03:56:05;;;;;;;24.63;14.50;;;;;;;;;;4997849;28;20022;-87
2022/01/02 03:58:31;;;;;;;20.58;13.95;;;;;;;;;;4997692;28;20069;-87
2022/01/02 04:00:57;;;;;;;24.13;14.00;;;;;;;;;;4997292;28;20030;-87
2022/01/02 04:03:23;;;;;;;20.63;14.18;;;;;;;;;;4997720;28;20113;-87
2022/01/02 04:05:49;;;;;;;26.00;15.77;;;;;;;;;;4997827;28;20031;-86
2022/01/02 04:08:15;;;;;;;24.90;15.00;;;;;;;;;;4997607;28;20029;-88
2022/01/02 04:10:41;;;;;;;23.05;15.00;;;;;;;;;;4997418;28;20109;-87
2022/01/02 04:13:07;;;;;;;21.10;13.20;;;;;;;;;;4997737;28;20106;-87
2022/01/02 04:15:34;;;;;;;23.13;14.35;;;;;;;;;;4998968;28;20053;-86
2022/01/02 04:18:00;;;;;;;25.08;14.57;;;;;;;;;;5001014;28;20027;-86
2022/01/02 04:20:26;;;;;;;29.58;14.95;;;;;;;;;;5000830;28;20110;-87
2022/01/02 04:22:52;;;;;;;21.77;14.82;;;;;;;;;;5000503;28;20046;-85
2022/01/02 04:25:18;;;;;;;23.95;14.43;;;;;;;;;;5001113;28;20427;-86
2022/01/02 04:27:44;;;;;;;22.67;14.93;;;;;;;;;;5000773;28;20328;-86
2022/01/02 04:30:12;;;;;;;22.08;14.23;;;;;;;;;;4999346;28;20121;-87
2022/01/02 04:32:38;;;;;;;19.58;14.13;;;;;;;;;;5000073;28;20026;-88
2022/01/02 04:35:05;;;;;;;24.63;14.98;;;;;;;;;;5000101;28;20441;-87
2022/01/02 04:37:31;;;;;;;24.15;14.82;;;;;;;;;;5000155;28;20037;-88
2022/01/02 04:39:57;;;;;;;29.60;15.45;;;;;;;;;;5000496;28;20034;-87
2022/01/02 04:42:23;;;;;;;22.48;15.35;;;;;;;;;;5000203;28;20030;-87
2022/01/02 04:44:49;;;;;;;23.63;15.45;;;;;;;;;;4999400;28;20026;-89
2022/01/02 04:47:15;;;;;;;23.20;15.38;;;;;;;;;;5000228;28;20029;-88
2022/01/02 04:49:41;;;;;;;23.70;16.17;;;;;;;;;;5000277;28;20361;-89
2022/01/02 04:52:07;;;;;;;25.58;17.13;;;;;;;;;;4999332;28;20038;-88
2022/01/02 04:54:33;;;;;;;24.00;15.50;;;;;;;;;;4980029;28;20035;-89
2022/01/02 04:56:59;;;;;;;23.38;14.52;;;;;;;;;;5000136;28;20061;-87
2022/01/02 04:59:25;;;;;;;22.77;14.90;;;;;;;;;;5000288;28;20031;-89
2022/01/02 05:01:51;;;;;;;23.90;15.40;;;;;;;;;;5000184;28;20137;-88
2022/01/02 05:04:17;;;;;;;26.55;15.43;;;;;;;;;;4999769;28;20030;-89
2022/01/02 05:06:44;;;;;;;24.02;13.90;;;;;;;;;;4998923;28;20070;-88
2022/01/02 05:09:10;;;;;;;21.90;13.52;;;;;;;;;;4998909;28;20068;-88
2022/01/02 05:11:36;;;;;;;24.73;14.60;;;;;;;;;;5000250;28;20101;-88
2022/01/02 05:14:02;;;;;;;23.15;15.73;;;;;;;;;;4999547;28;20035;-88
2022/01/02 05:19:31;;;;;;;22.40;13.63;;;;;;;;;;4999951;28;20052;-88
2022/01/02 05:21:58;;;;;;;21.45;14.23;;;;;;;;;;4999912;28;20115;-87
2022/01/02 05:24:24;;;;;;;27.13;16.10;;;;;;;;;;4999650;28;20029;-88
2022/01/02 05:26:51;;;;;;;24.88;16.42;;;;;;;;;;4999135;28;20106;-87
2022/01/02 05:29:17;;;;;;;28.33;19.77;;;;;;;;;;4999446;28;20030;-88
2022/01/02 05:31:43;;;;;;;39.63;24.27;;;;;;;;;;4999507;28;20031;-88
2022/01/02 05:34:09;;;;;;;30.70;19.55;;;;;;;;;;4999069;28;20026;-87
2022/01/02 05:36:35;;;;;;;24.73;16.80;;;;;;;;;;4999296;28;20437;-88
2022/01/02 05:39:01;;;;;;;25.98;16.60;;;;;;;;;;4999594;28;20384;-88
2022/01/02 05:41:29;;;;;;;24.02;15.63;;;;;;;;;;4998615;28;20041;-87
2022/01/02 05:43:56;;;;;;;25.17;16.17;;;;;;;;;;4999572;28;20049;-87
2022/01/02 05:46:59;;;;;;;28.08;17.65;;;;;;;;;;4997954;28;20062;-86
2022/01/02 05:49:25;;;;;;;24.00;15.48;;;;;;;;;;4998074;28;20488;-87
2022/01/02 05:51:51;;;;;;;27.27;18.20;;;;;;;;;;4999381;28;20030;-87
2022/01/02 05:54:17;;;;;;;28.25;17.08;;;;;;;;;;4998051;28;20038;-88
2022/01/02 05:56:43;;;;;;;24.55;15.50;;;;;;;;;;4999199;28;20126;-89
2022/01/02 05:59:09;;;;;;;23.20;14.70;;;;;;;;;;4999036;28;20027;-89
2022/01/02 06:04:38;;;;;;;19.73;12.68;;;;;;;;;;4998964;28;20044;-88
2022/01/02 06:07:05;;;;;;;19.95;12.80;;;;;;;;;;4999089;28;20058;-88
2022/01/02 06:09:31;;;;;;;18.58;12.05;;;;;;;;;;4998926;28;20034;-88
2022/01/02 06:11:57;;;;;;;20.05;12.65;;;;;;;;;;4997298;28;20061;-87
2022/01/02 06:14:23;;;;;;;21.58;13.32;;;;;;;;;;4998747;28;20026;-88
2022/01/02 06:16:49;;;;;;;19.50;14.00;;;;;;;;;;4997893;28;20087;-88
2022/01/02 06:19:15;;;;;;;28.77;17.55;;;;;;;;;;4997620;28;20031;-88
2022/01/02 06:21:41;;;;;;;29.88;16.38;;;;;;;;;;4999176;28;20022;-87
2022/01/02 06:24:07;;;;;;;24.20;14.98;;;;;;;;;;4997880;28;20022;-87
2022/01/02 06:26:33;;;;;;;29.00;18.45;;;;;;;;;;4997504;28;20023;-87
2022/01/02 06:29:03;;;;;;;30.20;19.50;;;;;;;;;;4997563;28;20035;-86
2022/01/02 06:34:32;;;;;;;38.55;21.27;;;;;;;;;;4998196;28;20061;-85
2022/01/02 06:36:58;;;;;;;38.05;20.98;;;;;;;;;;4997757;28;20117;-86
2022/01/02 06:39:24;;;;;;;37.63;22.30;;;;;;;;;;4997398;28;20121;-88
2022/01/02 06:41:51;;;;;;;41.70;23.40;;;;;;;;;;4998713;28;20030;-87
2022/01/02 06:44:17;;;;;;;48.95;26.02;;;;;;;;;;4997938;28;20022;-88
2022/01/02 06:46:43;;;;;;;44.20;25.33;;;;;;;;;;4997339;28;20034;-88
2022/01/02 06:49:09;;;;;;;39.55;24.10;;;;;;;;;;4997010;28;20142;-87
2022/01/02 06:51:35;;;;;;;35.08;20.95;;;;;;;;;;4998129;28;20027;-89
2022/01/02 06:54:01;;;;;;;41.53;24.50;;;;;;;;;;4998166;28;20019;-85
2022/01/02 06:56:27;;;;;;;46.92;28.80;;;;;;;;;;4997010;28;20042;-86
2022/01/02 06:58:53;;;;;;;41.58;26.98;;;;;;;;;;4996804;28;20324;-88
2022/01/02 07:04:23;;;;;;;60.45;38.47;;;;;;;;;;4997988;28;20069;-88
2022/01/02 07:06:49;;;;;;;67.43;42.80;;;;;;;;;;4996984;28;20084;-87
2022/01/02 07:09:15;;;;;;;60.03;38.47;;;;;;;;;;4997086;28;20117;-86
2022/01/02 07:11:41;;;;;;;62.88;36.42;;;;;;;;;;4997969;28;20105;-87
2022/01/02 07:14:07;;;;;;;85.50;49.83;;;;;;;;;;4996688;28;20035;-87
2022/01/02 07:16:33;;;;;;;109.07;56.92;;;;;;;;;;4997978;28;20137;-87
2022/01/02 07:18:59;;;;;;;92.18;53.17;;;;;;;;;;4997851;28;20451;-87
2022/01/02 07:21:25;;;;;;;116.53;69.00;;;;;;;;;;4997956;28;20173;-87
2022/01/02 07:23:54;;;;;;;95.97;59.53;;;;;;;;;;4996957;28;20408;-86
2022/01/02 07:26:20;;;;;;;61.95;39.65;;;;;;;;;;4996677;28;20125;-87
2022/01/02 07:28:46;;;;;;;53.47;33.72;;;;;;;;;;4997893;28;20344;-87
2022/01/02 07:31:12;;;;;;;76.88;37.92;;;;;;;;;;4996651;28;20042;-87
2022/01/02 07:33:38;;;;;;;95.57;42.58;;;;;;;;;;4997943;28;20073;-88
2022/01/02 07:36:04;;;;;;;130.88;52.83;;;;;;;;;;4996378;28;20112;-87
2022/01/02 07:38:30;;;;;;;97.15;44.33;;;;;;;;;;4998075;28;20027;-86
2022/01/02 07:40:56;;;;;;;92.88;43.70;;;;;;;;;;4997400;28;20027;-88
2022/01/02 07:43:22;;;;;;;76.32;38.90;;;;;;;;;;4996677;28;20045;-87
2022/01/02 07:45:48;;;;;;;87.35;46.05;;;;;;;;;;4997765;28;20034;-87
2022/01/02 07:48:15;;;;;;;94.40;48.78;;;;;;;;;;4997990;28;20029;-88
2022/01/02 07:50:41;;;;;;;134.30;65.28;;;;;;;;;;5000735;28;20030;-88
2022/01/02 07:53:07;;;;;;;226.55;96.65;;;;;;;;;;5001583;28;20068;-87
2022/01/02 07:55:33;;;;;;;284.05;113.28;;;;;;;;;;4999918;28;20429;-87
2022/01/02 07:57:59;;;;;;;555.38;216.43;;;;;;;;;;5001142;28;20401;-87
2022/01/02 08:00:25;;;;;;;627.90;266.80;;;;;;;;;;5000596;28;20113;-87
2022/01/02 08:02:51;;;;;;;504.35;209.38;;;;;;;;;;5001532;28;20290;-86
2022/01/02 08:05:17;;;;;;;362.70;138.52;;;;;;;;;;5000878;28;20153;-87
2022/01/02 08:07:43;;;;;;;320.30;127.80;;;;;;;;;;5002093;28;20023;-87
2022/01/02 08:10:10;;;;;;;277.08;112.90;;;;;;;;;;5001311;28;20037;-86
2022/01/02 08:12:36;;;;;;;246.50;98.43;;;;;;;;;;5000780;28;20050;-87
2022/01/02 08:15:02;;;;;;;226.38;97.38;;;;;;;;;;5001057;28;20034;-86
2022/01/02 08:17:28;;;;;;;241.10;101.57;;;;;;;;;;5000960;28;20041;-86
2022/01/02 08:19:54;;;;;;;193.93;88.47;;;;;;;;;;5000890;28;20498;-86
2022/01/02 08:22:20;;;;;;;157.88;74.20;;;;;;;;;;5000509;28;20088;-86
2022/01/02 08:24:47;;;;;;;170.90;78.40;;;;;;;;;;4999554;28;20425;-86
2022/01/02 08:27:13;;;;;;;129.00;62.95;;;;;;;;;;4999804;28;20031;-85
2022/01/02 08:29:39;;;;;;;83.25;44.88;;;;;;;;;;5000579;28;20027;-87
2022/01/02 08:32:05;;;;;;;64.20;36.90;;;;;;;;;;4999167;28;20043;-86
2022/01/02 08:34:31;;;;;;;64.13;37.15;;;;;;;;;;5001467;28;20039;-86
2022/01/02 08:36:57;;;;;;;72.00;41.15;;;;;;;;;;5019129;28;20030;-86
2022/01/02 08:39:23;;;;;;;59.50;35.35;;;;;;;;;;5019906;28;20037;-86
2022/01/02 08:41:49;;;;;;;54.58;31.48;;;;;;;;;;5006703;28;20019;-87
2022/01/02 08:44:15;;;;;;;44.85;25.98;;;;;;;;;;4999496;28;20038;-87
2022/01/02 08:46:41;;;;;;;41.90;24.77;;;;;;;;;;5000361;28;20444;-86
2022/01/02 08:49:07;;;;;;;39.97;24.20;;;;;;;;;;5000089;28;20041;-86
2022/01/02 08:51:33;;;;;;;38.47;23.27;;;;;;;;;;4999455;28;20034;-87
2022/01/02 08:54:01;;;;;;;48.80;27.33;;;;;;;;;;5000184;28;20041;-85
2022/01/02 08:56:27;;;;;;;65.68;34.03;;;;;;;;;;5000300;28;20033;-86
2022/01/02 08:58:53;;;;;;;41.70;25.08;;;;;;;;;;5000540;28;20054;-86
2022/01/02 09:01:19;;;;;;;42.95;26.45;;;;;;;;;;4999628;28;20034;-86
2022/01/02 09:03:46;;;;;;;47.88;27.25;;;;;;;;;;4999963;28;20132;-86
2022/01/02 09:06:12;;;;;;;39.28;24.23;;;;;;;;;;4999139;28;20039;-86
2022/01/02 09:08:38;;;;;;;54.42;33.63;;;;;;;;;;4999934;28;20105;-86
2022/01/02 09:11:04;;;;;;;50.45;29.23;;;;;;;;;;5000070;28;20400;-87
2022/01/02 09:13:30;;;;;;;54.92;30.42;;;;;;;;;;4999888;28;20397;-85
2022/01/02 09:15:56;;;;;;;42.83;24.75;;;;;;;;;;4998920;28;20408;-85
2022/01/02 09:18:22;;;;;;;37.17;23.27;;;;;;;;;;4999813;28;20400;-88
2022/01/02 09:20:48;;;;;;;36.88;23.13;;;;;;;;;;5000045;28;20034;-86
2022/01/02 09:23:14;;;;;;;26.75;18.13;;;;;;;;;;4999881;28;20022;-85
2022/01/02 09:25:40;;;;;;;33.05;20.67;;;;;;;;;;4999666;28;20033;-85
2022/01/02 09:28:07;;;;;;;37.65;23.13;;;;;;;;;;4999677;28;20405;-85
2022/01/02 09:30:33;;;;;;;31.75;19.95;;;;;;;;;;4999466;28;20030;-85
2022/01/02 09:32:59;;;;;;;22.33;14.90;;;;;;;;;;4999247;28;20026;-87
2022/01/02 09:35:26;;;;;;;27.48;16.83;;;;;;;;;;4998344;28;20054;-86
2022/01/02 09:37:52;;;;;;;22.77;14.88;;;;;;;;;;4998223;28;20034;-84
2022/01/02 09:40:19;;;;;;;22.40;14.75;;;;;;;;;;4999673;28;20293;-85
2022/01/02 09:42:45;;;;;;;30.88;19.23;;;;;;;;;;4999509;28;20030;-84
2022/01/02 09:45:11;;;;;;;30.75;17.85;;;;;;;;;;4999329;28;20050;-85
2022/01/02 09:47:38;;;;;;;23.95;15.07;;;;;;;;;;4997978;28;20034;-85
2022/01/02 09:50:08;;;;;;;21.05;12.77;;;;;;;;;;4999139;28;20417;-85
2022/01/02 09:52:34;;;;;;;21.80;13.18;;;;;;;;;;4999396;28;20037;-84
2022/01/02 09:55:00;;;;;;;31.10;17.60;;;;;;;;;;4999051;28;20037;-86
2022/01/02 09:57:27;;;;;;;25.08;15.18;;;;;;;;;;4999097;28;20026;-85
2022/01/02 09:59:53;;;;;;;23.38;14.68;;;;;;;;;;4999124;28;20034;-85
2022/01/02 10:02:20;;;;;;;23.70;15.10;;;;;;;;;;4999033;28;20026;-86
2022/01/02 10:04:46;;;;;;;19.88;12.70;;;;;;;;;;4998054;28;20038;-86
2022/01/02 10:07:26;;;;;;;19.40;14.18;;;;;;;;;;4999024;28;20413;-84
2022/01/02 10:09:52;;;;;;;28.63;19.02;;;;;;;;;;4998808;28;20026;-85
2022/01/02 10:12:26;;;;;;;25.42;16.42;;;;;;;;;;4998469;28;20027;-85
2022/01/02 10:15:07;;;;;;;28.77;18.25;;;;;;;;;;4998581;28;20038;-84
2022/01/02 10:17:52;;;;;;;21.60;14.93;;;;;;;;;;4997913;28;20030;-84
2022/01/02 10:20:18;;;;;;;30.65;17.25;;;;;;;;;;4997332;28;20125;-84
2022/01/02 10:23:03;;;;;;;35.47;20.42;;;;;;;;;;4998329;28;20447;-84
2022/01/02 10:25:56;;;;;;;35.90;23.30;;;;;;;;;;4998637;28;20081;-85
2022/01/02 10:28:22;;;;;;;35.33;22.13;;;;;;;;;;4997411;28;20038;-84
2022/01/02 10:30:50;;;;;;;33.20;21.30;;;;;;;;;;4997290;28;20026;-85
2022/01/02 10:33:16;;;;;;;38.33;22.17;;;;;;;;;;4997279;28;20034;-85
2022/01/02 10:35:43;;;;;;;32.15;20.42;;;;;;;;;;4998137;28;20428;-85
2022/01/02 10:38:16;;;;;;;31.88;18.92;;;;;;;;;;4998690;28;20037;-86
2022/01/02 10:40:42;;;;;;;31.55;19.08;;;;;;;;;;4998539;28;20030;-86
2022/01/02 10:43:22;;;;;;;26.17;16.55;;;;;;;;;;4997299;28;20030;-85
2022/01/02 10:45:50;;;;;;;23.63;14.63;;;;;;;;;;4997956;28;20034;-83
2022/01/02 10:48:18;;;;;;;26.98;15.68;;;;;;;;;;4981008;28;20038;-83
2022/01/02 10:51:00;;;;;;;27.70;16.33;;;;;;;;;;4997069;28;20066;-86
2022/01/02 10:53:29;;;;;;;50.05;27.15;;;;;;;;;;4996473;28;20050;-83
2022/01/02 10:55:55;;;;;;;45.00;24.00;;;;;;;;;;4997988;28;20033;-83
2022/01/02 10:58:21;;;;;;;48.60;29.65;;;;;;;;;;4998000;28;20030;-84
2022/01/02 11:00:48;;;;;;;46.92;24.90;;;;;;;;;;4997864;28;20042;-83
2022/01/02 11:03:16;;;;;;;120.80;71.40;;;;;;;;;;5011476;28;20030;-83
2022/01/02 11:05:42;;;;;;;99.22;59.58;;;;;;;;;;5016009;28;20065;-84
2022/01/02 11:08:12;;;;;;;51.55;32.30;;;;;;;;;;5016489;28;20037;-84
2022/01/02 11:10:38;;;;;;;73.05;44.33;;;;;;;;;;5016241;28;20029;-83
2022/01/02 11:13:05;;;;;;;101.25;58.28;;;;;;;;;;5017459;28;20034;-83
2022/01/02 11:15:31;;;;;;;55.25;30.80;;;;;;;;;;5017323;28;20100;-84
2022/01/02 11:17:58;;;;;;;45.50;28.60;;;;;;;;;;5017291;28;20053;-83
2022/01/02 11:20:28;;;;;;;35.92;22.70;;;;;;;;;;5016233;28;20030;-83
2022/01/02 11:22:56;;;;;;;29.77;19.80;;;;;;;;;;5016317;28;20018;-83
2022/01/02 11:25:22;;;;;;;31.95;21.23;;;;;;;;;;5020984;28;20049;-83
2022/01/02 11:27:53;;;;;;;25.90;17.60;;;;;;;;;;5020426;28;20400;-84
2022/01/02 11:30:29;;;;;;;22.92;15.13;;;;;;;;;;5021291;28;20022;-84
2022/01/02 11:33:01;;;;;;;25.50;15.38;;;;;;;;;;5021133;28;20072;-83
2022/01/02 11:35:31;;;;;;;22.13;14.23;;;;;;;;;;5019902;28;20484;-83
2022/01/02 11:38:01;;;;;;;23.55;14.50;;;;;;;;;;5021100;28;20382;-83
2022/01/02 11:40:47;;;;;;;22.13;13.98;;;;;;;;;;5021273;28;20324;-84
2022/01/02 11:43:31;;;;;;;25.63;13.85;;;;;;;;;;5021031;28;20305;-84
2022/01/02 11:46:21;;;;;;;20.35;13.55;;;;;;;;;;5021033;28;20076;-84
2022/01/02 11:49:05;;;;;;;21.48;12.57;;;;;;;;;;4980031;28;20031;-83
2022/01/02 11:51:49;;;;;;;17.88;12.35;;;;;;;;;;4963989;28;20027;-83
2022/01/02 11:54:31;;;;;;;21.92;13.00;;;;;;;;;;4963952;28;20035;-84
2022/01/02 11:56:58;;;;;;;20.95;13.68;;;;;;;;;;4980038;28;20533;-84
2022/01/02 11:59:39;;;;;;;22.80;14.20;;;;;;;;;;4980043;28;20030;-84
2022/01/02 12:02:28;;;;;;;31.67;18.52;;;;;;;;;;4979684;28;20034;-84
2022/01/02 12:07:41;;;;;;;24.05;14.10;;;;;;;;;;4979891;28;20035;-84
2022/01/02 12:10:16;;;;;;;18.10;10.27;;;;;;;;;;4979830;28;20027;-83
2022/01/02 12:15:45;;;;;;;29.60;13.82;;;;;;;;;;4979672;28;20037;-84
2022/01/02 12:18:24;;;;;;;22.05;12.40;;;;;;;;;;4979584;28;20106;-84
2022/01/02 12:20:50;;;;;;;21.25;13.50;;;;;;;;;;4979133;28;20085;-83
2022/01/02 12:23:34;;;;;;;21.08;12.20;;;;;;;;;;4979460;28;20050;-84
2022/01/02 12:26:10;;;;;;;19.05;11.50;;;;;;;;;;5003951;28;20030;-84
2022/01/02 12:28:41;;;;;;;25.52;14.75;;;;;;;;;;5020263;28;20030;-83
2022/01/02 12:31:09;;;;;;;32.33;15.73;;;;;;;;;;5020156;28;20038;-83
2022/01/02 12:33:36;;;;;;;41.58;18.50;;;;;;;;;;5020079;28;20033;-84
2022/01/02 12:36:22;;;;;;;39.33;19.33;;;;;;;;;;5017574;28;20108;-90
2022/01/02 12:38:55;;;;;;;34.65;18.75;;;;;;;;;;5019101;28;20300;-84
2022/01/02 12:41:26;;;;;;;51.70;22.98;;;;;;;;;;5019917;28;20026;-84
2022/01/02 12:43:52;;;;;;;60.33;23.38;;;;;;;;;;5018942;28;20401;-84
2022/01/02 12:46:34;;;;;;;45.17;21.52;;;;;;;;;;5020230;28;20030;-84
2022/01/02 12:49:01;;;;;;;43.33;18.52;;;;;;;;;;5019782;28;20061;-84
2022/01/02 12:51:31;;;;;;;68.00;24.15;;;;;;;;;;5019805;28;20025;-84
2022/01/02 12:54:01;;;;;;;54.22;23.33;;;;;;;;;;5019796;28;20068;-84
2022/01/02 12:56:37;;;;;;;42.92;21.52;;;;;;;;;;5019437;28;20408;-84
2022/01/02 12:59:22;;;;;;;37.38;21.52;;;;;;;;;;5018700;28;20101;-84
2022/01/02 13:01:51;;;;;;;50.97;26.45;;;;;;;;;;5018580;28;20036;-84
2022/01/02 13:04:17;;;;;;;42.00;21.80;;;;;;;;;;5019673;28;20049;-84
2022/01/02 13:07:03;;;;;;;39.88;23.27;;;;;;;;;;5018623;28;20041;-84
2022/01/02 13:09:37;;;;;;;50.83;25.92;;;;;;;;;;5018309;28;20108;-84
2022/01/02 13:12:04;;;;;;;42.05;23.92;;;;;;;;;;5019372;28;20037;-84
2022/01/02 13:14:32;;;;;;;43.90;24.55;;;;;;;;;;5019258;28;20462;-84
2022/01/02 13:17:00;;;;;;;40.50;23.90;;;;;;;;;;5018030;28;20026;-83
2022/01/02 13:19:26;;;;;;;33.95;22.02;;;;;;;;;;5018939;28;20076;-83
2022/01/02 13:21:53;;;;;;;33.67;21.95;;;;;;;;;;5019232;28;20057;-83
2022/01/02 13:24:24;;;;;;;33.63;20.23;;;;;;;;;;5018114;28;20033;-83
2022/01/02 13:26:50;;;;;;;25.90;17.85;;;;;;;;;;5019393;28;20041;-84
2022/01/02 13:29:20;;;;;;;26.38;16.05;;;;;;;;;;5018977;28;20042;-84
2022/01/02 13:31:46;;;;;;;20.80;12.25;;;;;;;;;;5018101;28;20038;-84
2022/01/02 13:34:21;;;;;;;18.60;12.73;;;;;;;;;;5013663;28;20026;-84
2022/01/02 13:36:54;;;;;;;19.80;13.93;;;;;;;;;;4999221;28;20066;-84
2022/01/02 13:39:20;;;;;;;24.85;15.05;;;;;;;;;;4999370;28;20034;-84
2022/01/02 13:41:51;;;;;;;25.90;16.92;;;;;;;;;;5000000;28;20181;-86
2022/01/02 13:44:17;;;;;;;32.20;19.38;;;;;;;;;;5017948;28;20025;-87
2022/01/02 13:46:50;;;;;;;28.17;18.58;;;;;;;;;;4999633;28;20049;-85
2022/01/02 13:49:36;;;;;;;32.78;20.27;;;;;;;;;;4986143;28;20030;-85
2022/01/02 13:52:03;;;;;;;33.03;20.80;;;;;;;;;;4998666;28;20026;-85
2022/01/02 13:54:29;;;;;;;34.55;22.63;;;;;;;;;;5005366;28;20050;-85
2022/01/02 13:56:59;;;;;;;37.53;22.58;;;;;;;;;;4998691;28;20316;-85
2022/01/02 13:59:26;;;;;;;39.78;21.92;;;;;;;;;;4998831;28;20094;-85
2022/01/02 14:02:29;;;;;;;33.30;21.92;;;;;;;;;;5006556;28;20069;-85
2022/01/02 14:04:59;;;;;;;41.85;25.48;;;;;;;;;;4997256;28;20098;-85
2022/01/02 14:07:29;;;;;;;44.28;24.67;;;;;;;;;;4999900;28;20026;-86
2022/01/02 14:09:55;;;;;;;43.88;25.25;;;;;;;;;;4989731;28;20027;-86
2022/01/02 14:12:26;;;;;;;46.97;26.17;;;;;;;;;;4998638;28;20070;-87
2022/01/02 14:15:02;;;;;;;38.25;24.83;;;;;;;;;;4999378;28;20030;-86
2022/01/02 14:20:51;;;;;;;43.72;26.85;;;;;;;;;;4998884;28;20138;-85
2022/01/02 14:23:17;;;;;;;43.03;26.77;;;;;;;;;;4997831;28;20050;-86
2022/01/02 14:25:45;;;;;;;43.83;27.55;;;;;;;;;;4998577;28;20026;-86
2022/01/02 14:28:15;;;;;;;45.35;29.20;;;;;;;;;;4998306;28;20033;-86
2022/01/02 14:30:41;;;;;;;43.97;27.67;;;;;;;;;;4997533;28;20022;-87
2022/01/02 14:36:11;;;;;;;51.63;30.20;;;;;;;;;;4998548;28;20061;-85
2022/01/02 14:38:37;;;;;;;57.55;35.90;;;;;;;;;;4998396;28;20428;-85
2022/01/02 14:41:03;;;;;;;60.50;36.95;;;;;;;;;;4997497;28;20125;-86
2022/01/02 14:43:30;;;;;;;52.13;32.53;;;;;;;;;;4998276;28;20034;-85
2022/01/02 14:45:56;;;;;;;58.67;34.95;;;;;;;;;;4997140;28;20073;-85
2022/01/02 14:48:23;;;;;;;57.10;36.47;;;;;;;;;;4998383;28;20423;-86
2022/01/02 14:50:49;;;;;;;47.35;31.10;;;;;;;;;;4997328;28;20113;-85